createdAt,value
2023-02-02T00:00:54.892Z,12.48
2023-02-02T00:05:07.563Z,10.15
2023-02-02T00:09:21.285Z,9.73
2023-02-02T01:00:53.865Z,9.23
2023-02-02T01:05:09.355Z,11.15
2023-02-02T01:09:22.401Z,11.52
2023-02-02T01:13:35.399Z,7.15
2023-02-02T01:17:47.782Z,8.43
2023-02-02T01:22:02.283Z,11.63
2023-02-02T01:26:16.564Z,8.63
2023-02-02T01:30:29.423Z,9.50
2023-02-02T01:34:43.931Z,9.43
2023-02-02T01:38:56.623Z,10.38
2023-02-02T01:43:24.452Z,10.10
2023-02-02T01:47:44.231Z,11.95
2023-02-02T01:52:01.228Z,9.68
2023-02-02T01:56:19.320Z,7.47
2023-02-02T02:00:32.006Z,9.52
2023-02-02T02:04:44.496Z,10.27
2023-02-02T02:09:01.209Z,5.80
2023-02-02T02:13:14.826Z,12.00
2023-02-02T02:17:46.826Z,7.40
2023-02-02T02:22:35.587Z,8.48
2023-02-02T02:27:07.073Z,7.03
2023-02-02T02:32:08.796Z,8.43
2023-02-02T02:36:56.239Z,6.80
2023-02-02T02:41:29.273Z,8.15
2023-02-02T02:45:44.854Z,7.78
2023-02-02T02:49:58.946Z,5.93
2023-02-02T02:54:19.173Z,6.65
2023-02-02T03:03:02.794Z,6.50
2023-02-02T03:07:26.506Z,6.85
2023-02-02T03:11:39.038Z,6.43
2023-02-02T03:15:51.407Z,5.53
2023-02-02T03:20:04.067Z,5.60
2023-02-02T03:24:16.410Z,7.25
2023-02-02T03:28:30.744Z,6.60
2023-02-02T03:32:43.199Z,6.63
2023-02-02T03:36:55.537Z,5.95
2023-02-02T03:41:07.975Z,7.70
2023-02-02T03:45:20.302Z,5.43
2023-02-02T03:49:32.645Z,6.65
2023-02-02T03:53:44.986Z,5.38
2023-02-02T03:57:57.331Z,6.00
2023-02-02T04:02:09.767Z,5.15
2023-02-02T04:06:22.822Z,6.43
2023-02-02T04:10:35.169Z,6.80
2023-02-02T04:14:47.445Z,5.53
2023-02-02T04:18:59.801Z,5.00
2023-02-02T04:23:12.135Z,8.18
2023-02-02T04:27:24.529Z,4.50
2023-02-02T04:31:36.925Z,7.13
2023-02-02T04:35:49.400Z,4.68
2023-02-02T04:40:01.736Z,5.57
2023-02-02T04:44:17.314Z,5.68
2023-02-02T04:48:29.744Z,4.03
2023-02-02T04:52:43.371Z,4.72
2023-02-02T04:56:56.637Z,4.00
2023-02-02T05:01:17.995Z,5.07
2023-02-02T05:05:30.365Z,5.45
2023-02-02T05:09:43.892Z,6.10
2023-02-02T05:13:56.249Z,9.50
2023-02-02T05:18:08.594Z,9.57
2023-02-02T05:22:20.930Z,6.50
2023-02-02T05:26:33.586Z,5.60
2023-02-02T05:30:46.087Z,6.38
2023-02-02T05:34:58.523Z,7.75
2023-02-02T05:39:11.092Z,4.18
2023-02-02T05:43:27.710Z,7.90
2023-02-02T05:47:40.007Z,11.32
2023-02-02T05:51:57.917Z,9.38
2023-02-02T05:56:10.285Z,7.70
2023-02-02T06:00:23.227Z,8.02
2023-02-02T06:04:35.565Z,19.42
2023-02-02T06:08:47.857Z,23.08
2023-02-02T06:13:00.192Z,17.35
2023-02-02T06:17:12.533Z,12.90
2023-02-02T06:21:25.086Z,9.07
2023-02-02T06:25:37.540Z,10.05
2023-02-02T06:29:49.912Z,12.77
2023-02-02T06:34:02.295Z,7.55
2023-02-02T06:38:14.590Z,9.88
2023-02-02T06:42:26.959Z,10.30
2023-02-02T06:46:39.357Z,12.80
2023-02-02T06:50:52.016Z,9.50
2023-02-02T06:55:04.591Z,13.30
2023-02-02T06:59:16.988Z,10.60
2023-02-02T07:03:29.219Z,11.18
2023-02-02T07:07:41.530Z,10.10
2023-02-02T07:11:53.905Z,12.77
2023-02-02T07:16:07.541Z,7.88
2023-02-02T07:20:20.565Z,12.45
2023-02-02T07:24:34.073Z,36.75
2023-02-02T07:28:49.460Z,37.40
2023-02-02T07:33:02.465Z,27.73
2023-02-02T07:37:14.928Z,25.90
2023-02-02T07:41:28.239Z,34.13
2023-02-02T07:45:40.852Z,29.25
2023-02-02T07:49:53.411Z,24.45
2023-02-02T07:54:06.127Z,31.95
2023-02-02T07:58:18.557Z,30.00
2023-02-02T08:02:30.907Z,23.13
2023-02-02T08:06:43.292Z,15.23
2023-02-02T08:10:55.876Z,11.55
2023-02-02T08:15:08.969Z,12.95
2023-02-02T08:19:21.501Z,18.58
2023-02-02T08:23:33.844Z,20.88
2023-02-02T08:27:46.405Z,16.23
2023-02-02T08:32:00.532Z,7.18
2023-02-02T08:36:15.097Z,14.27
2023-02-02T08:40:27.494Z,8.00
2023-02-02T08:45:59.800Z,13.63
2023-02-02T08:49:15.062Z,12.00
2023-02-02T08:53:29.948Z,12.00
2023-02-02T08:57:48.867Z,9.50
2023-02-02T09:02:01.537Z,10.75
2023-02-02T09:06:16.914Z,12.50
2023-02-02T09:10:32.199Z,10.88
2023-02-02T09:14:46.608Z,11.95
2023-02-02T09:18:59.315Z,9.45
2023-02-02T09:23:11.617Z,11.10
2023-02-02T09:27:24.210Z,6.88
2023-02-02T09:31:40.622Z,9.38
2023-02-02T09:35:53.087Z,8.50
2023-02-02T09:40:06.943Z,12.75
2023-02-02T09:44:54.003Z,7.93
2023-02-02T09:49:14.724Z,7.57
2023-02-02T09:53:55.272Z,11.00
2023-02-02T09:58:20.717Z,8.43
2023-02-02T10:02:44.709Z,10.88
2023-02-02T10:07:01.019Z,8.32
2023-02-02T10:11:33.862Z,10.40
2023-02-02T10:15:55.850Z,7.72
2023-02-02T10:20:31.287Z,7.93
2023-02-02T10:24:43.956Z,7.13
2023-02-02T10:29:17.022Z,10.95
2023-02-02T10:33:40.078Z,7.65
2023-02-02T10:38:25.171Z,19.25
2023-02-02T10:43:14.838Z,7.88
2023-02-02T10:47:35.484Z,6.95
2023-02-02T10:51:59.330Z,7.25
2023-02-02T18:21:53.466Z,40.17
2023-02-02T18:26:20.079Z,41.15
2023-02-02T18:30:32.834Z,41.63
2023-02-02T18:34:45.965Z,43.13
2023-02-02T18:38:58.429Z,39.88
2023-02-02T18:43:10.744Z,32.50
2023-02-02T18:47:26.515Z,34.20
2023-02-02T18:51:39.320Z,35.25
2023-02-02T18:55:51.713Z,39.45
2023-02-02T19:00:05.503Z,35.47
2023-02-02T19:04:17.890Z,39.67
2023-02-02T19:08:33.917Z,38.70
2023-02-02T19:13:07.020Z,38.47
2023-02-02T19:17:24.744Z,31.63
2023-02-02T19:21:37.118Z,34.03
2023-02-02T19:25:52.483Z,30.30
2023-02-02T19:30:17.155Z,30.10
2023-02-02T19:34:33.711Z,39.65
2023-02-02T19:38:47.257Z,28.40
2023-02-02T19:43:25.470Z,26.65
2023-02-02T19:47:41.387Z,27.67
2023-02-02T19:51:55.511Z,23.45
2023-02-02T19:56:38.131Z,19.80
2023-02-02T20:00:52.464Z,23.60
2023-02-02T20:05:18.198Z,23.15
2023-02-02T20:09:35.573Z,33.05
2023-02-02T20:13:49.044Z,21.00
2023-02-02T20:18:04.983Z,34.70
2023-02-02T20:22:30.527Z,34.72
2023-02-02T20:26:50.347Z,34.38
2023-02-02T20:31:09.220Z,28.17
2023-02-02T20:35:36.287Z,26.33
2023-02-02T20:39:58.088Z,27.92
2023-02-02T20:44:11.290Z,31.83
2023-02-02T20:48:25.873Z,35.38
2023-02-02T20:52:39.180Z,38.05
2023-02-02T20:56:52.464Z,36.03
2023-02-02T21:01:05.979Z,35.90
2023-02-02T21:05:18.341Z,30.95
2023-02-02T21:09:30.615Z,32.13
2023-02-02T21:13:43.389Z,32.17
2023-02-02T21:17:55.703Z,32.95
2023-02-02T21:22:08.063Z,28.38
2023-02-02T21:26:26.814Z,20.95
2023-02-02T21:30:39.422Z,17.75
2023-02-02T21:34:51.882Z,15.85
2023-02-02T21:39:26.857Z,18.35
2023-02-02T21:43:39.198Z,15.55
2023-02-02T21:47:54.285Z,18.42
2023-02-02T21:52:17.894Z,12.45
2023-02-02T21:56:39.400Z,14.38
2023-02-02T22:00:53.838Z,12.48
2023-02-02T22:05:36.288Z,17.15
2023-02-02T22:09:50.342Z,10.00
2023-02-02T22:14:19.270Z,12.15
2023-02-02T22:18:35.977Z,11.40
2023-02-02T22:22:50.563Z,11.70
2023-02-02T22:27:04.663Z,21.25
2023-02-02T22:31:18.160Z,15.60
2023-02-02T22:35:31.049Z,16.23
2023-02-02T22:39:43.400Z,15.13
2023-02-02T22:43:56.048Z,15.68
2023-02-02T22:48:09.890Z,15.55
2023-02-02T22:52:22.647Z,9.07
2023-02-02T22:56:34.970Z,11.68
2023-02-02T23:00:48.420Z,12.98
2023-02-02T23:05:01.039Z,13.32
2023-02-02T23:09:13.712Z,13.15
2023-02-02T23:13:26.068Z,9.45
2023-02-02T23:17:38.696Z,7.82
2023-02-02T23:21:51.008Z,7.90
2023-02-02T23:26:03.623Z,7.22
2023-02-02T23:30:22.553Z,7.32
2023-02-02T23:34:34.976Z,5.88
2023-02-02T23:38:48.390Z,7.68
2023-02-02T23:43:00.989Z,7.30
2023-02-02T23:47:14.385Z,7.93
2023-02-02T23:51:26.975Z,6.95
2023-02-02T23:55:44.549Z,6.63
2023-02-02T23:59:56.950Z,7.25
